Time;durP1;ratioP1;P1;durP2;ratioP2;P2;SDS_P1;SDS_P2;PMS_P1;PMS_P2;Temp;Humidity;BMP_temperature;BMP_pressure;BME280_temperature;BME280_humidity;BME280_pressure;Samples;Min_cycle;Max_cycle;Signal;HPM_P1;HPM_P2
2021/08/02 06:56:34;;;;;;;6.97;3.80;;;19.00;99.90;;;;;;12095686;27;20455;-61
2021/08/02 07:02:21;;;;;;;5.97;3.55;;;19.50;99.90;;;;;;12053056;28;20040;-62
2021/08/02 07:08:08;;;;;;;11.95;3.88;;;20.10;99.90;;;;;;12078024;28;20683;-62
2021/08/02 07:13:57;;;;;;;14.25;4.45;;;20.60;99.90;;;;;;12028229;28;20048;-62
2021/08/02 07:19:43;;;;;;;9.65;3.80;;;20.90;99.90;;;;;;12031337;28;20048;-62
2021/08/02 07:25:31;;;;;;;9.18;3.80;;;21.10;99.90;;;;;;12030994;28;20049;-62
2021/08/02 07:31:19;;;;;;;11.60;4.20;;;21.30;99.90;;;;;;12014598;28;20057;-63
2021/08/02 07:37:06;;;;;;;10.52;4.32;;;21.50;99.90;;;;;;12057431;28;20052;-63
2021/08/02 07:42:53;;;;;;;10.93;4.60;;;21.50;99.90;;;;;;12033635;28;20531;-62
2021/08/02 07:48:41;;;;;;;7.95;4.72;;;21.50;99.90;;;;;;12022132;28;20048;-63
2021/08/02 07:54:28;;;;;;;9.55;4.82;;;21.70;99.90;;;;;;12031503;28;20067;-63
2021/08/02 08:00:17;;;;;;;14.82;5.45;;;21.90;99.90;;;;;;12042416;28;20036;-63
2021/08/02 08:06:05;;;;;;;8.82;5.38;;;22.00;99.90;;;;;;12017426;28;20079;-64
2021/08/02 08:11:52;;;;;;;9.23;4.85;;;22.10;99.90;;;;;;12009284;28;20068;-63
2021/08/02 08:17:39;;;;;;;12.57;5.28;;;22.10;99.90;;;;;;12040306;28;20056;-63
2021/08/02 08:23:29;;;;;;;8.93;4.68;;;22.10;99.90;;;;;;12038724;28;20552;-63
2021/08/02 08:29:16;;;;;;;6.90;3.90;;;22.20;99.90;;;;;;12041668;28;20488;-62
2021/08/02 08:35:03;;;;;;;6.18;4.13;;;22.20;99.90;;;;;;12020564;28;20543;-62
2021/08/02 08:40:53;;;;;;;13.73;4.45;;;22.20;99.90;;;;;;11983937;28;20037;-62
2021/08/02 08:46:42;;;;;;;7.38;3.90;;;22.30;99.90;;;;;;12008340;28;20588;-65
2021/08/02 08:52:31;;;;;;;6.35;3.47;;;22.30;99.10;;;;;;12007066;28;20052;-62
2021/08/02 08:58:19;;;;;;;7.60;3.75;;;22.40;98.90;;;;;;11991147;28;20102;-62
2021/08/02 09:04:07;;;;;;;6.15;3.70;;;22.40;97.80;;;;;;11987600;28;20052;-62
2021/08/02 09:09:59;;;;;;;9.52;4.03;;;22.40;97.80;;;;;;11997876;28;20044;-62
2021/08/02 09:15:48;;;;;;;5.38;3.70;;;22.30;98.00;;;;;;12016722;28;20489;-61
2021/08/02 09:21:41;;;;;;;6.63;3.55;;;22.50;98.10;;;;;;11990163;28;20056;-62
2021/08/02 09:27:28;;;;;;;6.82;3.38;;;22.70;97.70;;;;;;12023970;28;20055;-63
2021/08/02 09:33:16;;;;;;;5.13;3.42;;;22.80;97.10;;;;;;12032804;28;20052;-62
2021/08/02 09:39:06;;;;;;;4.65;3.13;;;22.80;96.10;;;;;;12013374;28;20040;-61
2021/08/02 09:45:00;;;;;;;4.22;2.88;;;22.80;96.40;;;;;;11999294;28;20619;-63
2021/08/02 09:50:49;;;;;;;3.72;2.92;;;23.10;95.60;;;;;;11997955;28;20083;-60
2021/08/02 09:56:37;;;;;;;3.63;2.20;;;23.20;95.50;;;;;;12014129;28;20517;-61
2021/08/02 10:02:25;;;;;;;3.90;2.25;;;22.90;95.40;;;;;;12000175;28;20129;-62
2021/08/02 10:08:13;;;;;;;3.35;2.42;;;23.00;94.20;;;;;;11993991;28;20049;-62
2021/08/02 10:14:00;;;;;;;2.80;2.17;;;23.00;93.30;;;;;;11985181;28;20191;-62
2021/08/02 10:19:54;;;;;;;3.22;2.50;;;23.00;92.80;;;;;;12028432;28;20045;-61
2021/08/02 10:25:42;;;;;;;3.00;2.25;;;23.20;93.00;;;;;;12019052;28;20598;-61
2021/08/02 10:31:41;;;;;;;4.38;3.10;;;23.20;93.20;;;;;;12006485;28;20045;-61
2021/08/02 10:37:33;;;;;;;3.55;2.80;;;23.20;93.50;;;;;;11942072;28;20052;-61
2021/08/02 10:43:29;;;;;;;7.07;3.40;;;23.30;93.80;;;;;;12013403;28;20048;-63
2021/08/02 10:49:18;;;;;;;4.63;2.90;;;23.00;93.80;;;;;;12024664;28;20049;-60
2021/08/02 10:55:14;;;;;;;3.80;2.58;;;23.10;92.50;;;;;;12039319;28;20057;-61
2021/08/02 11:01:20;;;;;;;5.53;2.75;;;23.50;92.80;;;;;;12026413;28;20052;-61
2021/08/02 11:07:08;;;;;;;8.93;3.20;;;23.80;92.20;;;;;;11984821;28;20412;-61
2021/08/02 11:12:54;;;;;;;3.55;2.85;;;23.90;91.80;;;;;;12039385;28;20075;-61
2021/08/02 11:18:46;;;;;;;4.07;2.88;;;24.00;91.10;;;;;;12044418;28;20052;-60
2021/08/02 11:24:42;;;;;;;4.10;2.88;;;24.20;91.30;;;;;;12019619;28;20049;-62
2021/08/02 11:30:30;;;;;;;4.93;3.30;;;24.70;91.10;;;;;;12021855;28;20076;-68
2021/08/02 11:36:20;;;;;;;3.38;3.03;;;24.30;91.50;;;;;;12003209;28;20049;-61
2021/08/02 11:42:10;;;;;;;5.93;3.70;;;24.00;91.60;;;;;;11997083;28;20117;-61
2021/08/02 11:47:59;;;;;;;4.68;2.97;;;24.00;91.60;;;;;;12004379;28;20540;-63
2021/08/02 11:53:47;;;;;;;5.00;3.33;;;24.10;91.40;;;;;;11993327;28;20421;-62
2021/08/02 11:59:34;;;;;;;4.22;3.15;;;24.00;91.90;;;;;;12007748;28;20040;-62
2021/08/02 12:05:24;;;;;;;3.92;2.90;;;24.10;91.60;;;;;;12041483;28;20068;-62
2021/08/02 12:11:13;;;;;;;5.68;3.20;;;24.10;91.30;;;;;;12018963;28;20044;-62
2021/08/02 12:17:05;;;;;;;6.45;2.70;;;24.10;91.40;;;;;;12000479;28;20056;-63
2021/08/02 12:22:52;;;;;;;3.10;2.53;;;24.40;90.50;;;;;;12049120;28;20106;-63
2021/08/02 12:28:42;;;;;;;4.63;2.80;;;24.80;90.30;;;;;;12048122;28;20044;-61
2021/08/02 12:34:30;;;;;;;3.83;2.72;;;25.00;87.70;;;;;;12035429;28;20072;-63
2021/08/02 12:40:18;;;;;;;3.95;3.03;;;24.80;89.70;;;;;;12046313;28;20131;-61
2021/08/02 12:46:09;;;;;;;3.95;3.38;;;24.30;90.60;;;;;;12035023;28;20068;-62
2021/08/02 12:51:59;;;;;;;5.10;2.95;;;24.40;90.00;;;;;;12035653;28;20146;-61
2021/08/02 12:57:46;;;;;;;6.88;3.20;;;24.30;90.70;;;;;;12053535;28;20131;-62
2021/08/02 13:03:34;;;;;;;6.20;3.35;;;24.00;91.00;;;;;;12037273;28;20076;-61
2021/08/02 13:09:21;;;;;;;5.50;3.00;;;23.70;92.90;;;;;;12042269;28;20414;-61
2021/08/02 13:15:09;;;;;;;7.55;3.38;;;23.80;93.50;;;;;;12050106;28;20048;-63
2021/08/02 13:20:58;;;;;;;4.85;3.00;;;24.10;92.30;;;;;;12000767;28;20437;-63
2021/08/02 13:26:56;;;;;;;7.45;3.00;;;24.30;90.30;;;;;;11997422;28;20056;-62
2021/08/02 13:32:43;;;;;;;6.30;3.30;;;24.40;91.20;;;;;;12001698;28;20542;-65
2021/08/02 13:38:32;;;;;;;8.30;4.13;;;23.90;93.40;;;;;;12022368;28;20071;-64
2021/08/02 13:44:19;;;;;;;7.13;4.18;;;23.40;96.90;;;;;;12040567;28;20043;-65
2021/08/02 13:50:07;;;;;;;7.15;3.50;;;22.70;99.30;;;;;;12060223;28;20100;-66
2021/08/02 13:55:55;;;;;;;6.35;3.95;;;22.70;99.90;;;;;;11992713;28;20045;-64
2021/08/02 14:01:43;;;;;;;8.27;3.70;;;23.00;99.90;;;;;;11995923;28;20377;-62
2021/08/02 14:07:29;;;;;;;13.02;5.50;;;23.10;99.90;;;;;;12002731;28;20048;-63
2021/08/02 14:13:19;;;;;;;11.18;5.88;;;23.20;99.90;;;;;;11989730;28;20083;-63
2021/08/02 14:19:08;;;;;;;10.02;5.05;;;23.10;99.90;;;;;;12015708;28;20131;-63
2021/08/02 14:24:57;;;;;;;8.88;5.20;;;23.10;99.90;;;;;;11974913;28;20059;-63
2021/08/02 14:30:46;;;;;;;9.20;5.75;;;23.10;99.90;;;;;;12038155;28;20056;-63
2021/08/02 14:36:33;;;;;;;10.13;5.50;;;23.40;99.90;;;;;;12024801;28;20040;-64
2021/08/02 14:42:24;;;;;;;7.18;4.25;;;23.70;99.90;;;;;;12030834;28;20057;-63
2021/08/02 14:48:13;;;;;;;7.65;4.70;;;24.00;99.90;;;;;;12007703;28;20036;-62
2021/08/02 14:54:01;;;;;;;7.20;4.30;;;24.40;99.90;;;;;;12030440;28;20110;-62
2021/08/02 14:59:48;;;;;;;5.93;4.28;;;24.60;99.90;;;;;;12024216;28;20973;-62
2021/08/02 15:05:37;;;;;;;7.65;3.90;;;24.90;99.90;;;;;;12009210;28;20456;-62
2021/08/02 15:11:26;;;;;;;5.45;3.35;;;25.20;99.90;;;;;;12005891;28;20060;-62
2021/08/02 15:17:14;;;;;;;4.78;3.38;;;25.50;99.90;;;;;;11999923;28;20063;-62
2021/08/02 15:23:05;;;;;;;5.03;3.20;;;25.70;99.90;;;;;;12007252;28;20053;-61
2021/08/02 15:28:54;;;;;;;4.15;1.88;;;26.00;99.90;;;;;;12001894;28;20052;-62
2021/08/02 15:34:41;;;;;;;3.90;1.35;;;25.50;91.90;;;;;;12056144;28;20044;-62
2021/08/02 15:40:31;;;;;;;9.68;3.92;;;25.00;86.80;;;;;;12045401;28;20056;-62
2021/08/02 15:46:20;;;;;;;32.10;15.60;;;25.00;86.80;;;;;;12035727;28;20040;-64
2021/08/02 15:52:09;;;;;;;3.63;2.30;;;24.60;82.40;;;;;;12022185;28;20531;-64
2021/08/02 15:58:00;;;;;;;3.20;2.00;;;24.90;89.00;;;;;;12042862;28;20474;-62
2021/08/02 16:10:07;;;;;;;9.85;4.95;;;25.00;90.90;;;;;;12042243;28;20143;-62
2021/08/02 16:15:56;;;;;;;8.50;1.57;;;25.50;88.40;;;;;;12046014;28;20059;-62
2021/08/02 16:21:43;;;;;;;6.38;2.80;;;24.70;88.30;;;;;;12052131;28;20064;-61
2021/08/02 16:27:30;;;;;;;5.90;3.10;;;24.90;89.20;;;;;;12025058;28;20053;-62
2021/08/02 16:33:19;;;;;;;13.23;4.22;;;24.70;91.80;;;;;;12041690;28;20044;-62
2021/08/02 16:39:05;;;;;;;9.32;3.85;;;24.40;94.10;;;;;;12049350;28;20126;-63
2021/08/02 16:44:52;;;;;;;12.95;4.70;;;25.10;95.20;;;;;;12044622;28;20047;-61
2021/08/02 16:50:40;;;;;;;7.82;3.50;;;26.20;92.50;;;;;;12051954;28;20118;-61
2021/08/02 16:56:27;;;;;;;11.68;4.38;;;25.70;92.30;;;;;;12049298;28;20059;-61
2021/08/02 17:02:14;;;;;;;6.07;3.60;;;25.60;93.20;;;;;;11952224;28;20737;-61
2021/08/02 17:08:03;;;;;;;5.93;3.60;;;25.30;93.50;;;;;;12008523;28;20138;-61
2021/08/02 17:13:50;;;;;;;4.72;3.35;;;24.70;93.70;;;;;;12060764;28;20041;-60
2021/08/02 17:19:36;;;;;;;8.55;3.35;;;24.10;94.20;;;;;;12066397;28;20048;-61
2021/08/02 17:25:25;;;;;;;5.47;3.38;;;23.80;95.00;;;;;;12058426;28;20151;-61
2021/08/02 17:31:12;;;;;;;5.78;3.45;;;23.50;95.00;;;;;;12027873;28;20040;-60
2021/08/02 17:36:59;;;;;;;5.82;2.80;;;23.60;95.50;;;;;;12066378;28;20045;-60
2021/08/02 17:42:48;;;;;;;2.95;2.72;;;23.40;95.00;;;;;;12065917;28;20103;-61
2021/08/02 17:48:35;;;;;;;7.28;3.90;;;23.30;95.50;;;;;;12066680;28;20531;-61
2021/08/02 17:54:22;;;;;;;11.98;3.97;;;23.30;95.90;;;;;;12042328;28;20044;-62
2021/08/02 18:00:11;;;;;;;8.32;4.82;;;23.10;96.60;;;;;;11984818;28;20068;-62
2021/08/02 18:05:58;;;;;;;5.45;3.22;;;22.70;97.80;;;;;;12059682;28;20079;-61
2021/08/02 18:11:45;;;;;;;9.10;3.70;;;22.20;98.90;;;;;;12065104;28;20504;-61
2021/08/02 18:17:34;;;;;;;6.38;3.22;;;22.00;99.20;;;;;;12065404;28;20044;-61
2021/08/02 18:23:20;;;;;;;3.83;2.53;;;22.20;99.30;;;;;;12046767;28;20036;-61
2021/08/02 18:29:07;;;;;;;11.48;6.32;;;22.40;99.00;;;;;;12016696;28;20055;-61
2021/08/02 18:34:56;;;;;;;3.65;2.80;;;22.50;99.00;;;;;;12033685;28;20041;-62
2021/08/02 18:40:42;;;;;;;4.75;2.92;;;22.40;99.00;;;;;;11992639;28;20053;-61
2021/08/02 18:46:29;;;;;;;3.78;2.53;;;22.40;99.30;;;;;;12025975;28;20413;-62
2021/08/02 18:52:18;;;;;;;7.22;4.32;;;22.40;98.90;;;;;;12030602;28;20068;-62
2021/08/02 18:58:05;;;;;;;6.90;3.10;;;22.40;99.10;;;;;;12002537;28;20044;-61
2021/08/02 19:03:52;;;;;;;6.30;2.58;;;22.40;99.30;;;;;;12012437;28;20048;-62
2021/08/02 19:09:40;;;;;;;3.35;2.70;;;22.30;99.60;;;;;;11991571;28;20045;-62
2021/08/02 19:15:29;;;;;;;5.35;2.83;;;22.20;99.90;;;;;;11991690;28;20524;-62
2021/08/02 19:21:23;;;;;;;3.80;2.88;;;22.10;99.90;;;;;;11998587;28;20036;-60
2021/08/02 19:27:11;;;;;;;3.60;2.40;;;22.00;99.90;;;;;;12016110;28;20051;-63
2021/08/02 19:32:58;;;;;;;7.50;3.33;;;22.10;99.90;;;;;;12014003;28;20048;-62
2021/08/02 19:38:46;;;;;;;3.85;2.65;;;22.10;99.90;;;;;;12050056;28;20041;-62
2021/08/02 19:44:43;;;;;;;9.40;3.15;;;22.20;99.90;;;;;;12038788;28;20113;-62
2021/08/02 19:50:34;;;;;;;4.30;2.83;;;22.10;99.90;;;;;;12044727;28;20092;-63
2021/08/02 19:56:23;;;;;;;5.55;3.35;;;22.10;99.90;;;;;;12054800;28;20048;-62
2021/08/02 20:02:11;;;;;;;5.13;3.75;;;22.10;99.90;;;;;;12042576;28;20056;-62
2021/08/02 20:07:59;;;;;;;7.63;4.25;;;22.00;99.90;;;;;;12035165;28;20043;-67
2021/08/02 20:13:46;;;;;;;5.22;3.50;;;21.90;99.90;;;;;;12009893;28;20066;-62
2021/08/02 20:19:35;;;;;;;7.85;3.90;;;21.90;99.90;;;;;;11995566;28;20114;-61
2021/08/02 20:25:25;;;;;;;5.95;3.65;;;21.90;99.90;;;;;;12002119;28;20075;-62
2021/08/02 20:31:16;;;;;;;8.30;4.55;;;21.90;99.90;;;;;;12017298;28;20051;-63
2021/08/02 20:37:21;;;;;;;4.75;3.80;;;22.00;99.90;;;;;;11957884;28;20056;-64
2021/08/02 20:43:17;;;;;;;6.32;3.30;;;22.00;99.90;;;;;;12044170;28;20527;-64
2021/08/02 20:49:04;;;;;;;3.70;3.05;;;21.90;99.90;;;;;;12045119;28;20040;-64
2021/08/02 20:54:53;;;;;;;7.88;3.72;;;22.00;99.90;;;;;;12038534;28;20425;-61
2021/08/02 21:00:42;;;;;;;7.05;3.10;;;22.00;99.90;;;;;;12024783;28;20511;-63
2021/08/02 21:06:34;;;;;;;5.38;3.63;;;21.90;99.90;;;;;;12068439;28;20048;-63
2021/08/02 21:12:29;;;;;;;5.50;3.38;;;21.70;99.90;;;;;;12067916;28;20049;-64
2021/08/02 21:18:29;;;;;;;6.53;4.32;;;21.50;99.90;;;;;;12067929;28;20041;-64
2021/08/02 21:24:16;;;;;;;10.93;4.70;;;21.60;99.90;;;;;;12067454;28;20045;-63
2021/08/02 21:30:05;;;;;;;7.65;4.68;;;21.60;99.90;;;;;;12068443;28;20052;-63
2021/08/02 21:35:52;;;;;;;8.75;4.38;;;21.60;99.90;;;;;;12042227;28;20053;-64
2021/08/02 21:41:41;;;;;;;7.25;4.53;;;21.50;99.90;;;;;;12066610;28;20047;-64
2021/08/02 21:47:29;;;;;;;6.32;4.07;;;21.50;99.90;;;;;;12066564;28;20595;-62
2021/08/02 21:53:16;;;;;;;7.15;4.00;;;21.50;99.90;;;;;;12055725;28;20044;-63
2021/08/02 21:59:03;;;;;;;7.10;4.28;;;21.50;99.90;;;;;;11999341;28;20060;-63
2021/08/02 22:04:54;;;;;;;15.25;9.98;;;21.50;99.90;;;;;;12020056;28;20049;-63
2021/08/02 22:10:42;;;;;;;11.73;8.30;;;21.40;99.90;;;;;;11999947;28;20040;-63
2021/08/02 22:16:29;;;;;;;10.05;7.03;;;21.50;99.90;;;;;;12001834;28;20045;-62
2021/08/02 22:22:17;;;;;;;7.97;4.65;;;21.50;99.90;;;;;;12036023;28;23114;-63
2021/08/02 22:28:04;;;;;;;8.68;3.97;;;21.50;99.90;;;;;;12038316;28;20063;-63
2021/08/02 22:33:51;;;;;;;6.93;4.10;;;21.40;99.90;;;;;;12041947;28;20044;-62
2021/08/02 22:39:39;;;;;;;7.10;4.03;;;21.30;99.90;;;;;;12045386;28;21753;-62
2021/08/02 22:45:28;;;;;;;5.55;3.78;;;21.30;99.90;;;;;;12014318;28;20061;-63
2021/08/02 22:51:15;;;;;;;8.90;3.75;;;21.30;99.90;;;;;;12007217;28;20067;-64
2021/08/02 22:57:04;;;;;;;6.65;4.10;;;21.30;99.90;;;;;;12021096;28;20227;-64
2021/08/02 23:02:53;;;;;;;4.32;3.75;;;21.40;99.90;;;;;;12004174;28;20222;-64
2021/08/02 23:08:44;;;;;;;12.57;8.07;;;21.30;99.90;;;;;;11986316;28;20471;-65
2021/08/02 23:14:33;;;;;;;8.85;5.40;;;21.20;99.90;;;;;;11995850;28;20060;-62
2021/08/02 23:20:22;;;;;;;9.35;6.53;;;21.20;99.90;;;;;;12003602;28;20046;-64
2021/08/02 23:26:10;;;;;;;14.38;4.50;;;21.20;99.90;;;;;;12018083;28;20060;-63
2021/08/02 23:31:59;;;;;;;6.78;4.40;;;21.10;99.90;;;;;;11991356;28;20060;-63
2021/08/02 23:37:47;;;;;;;6.03;3.67;;;21.10;99.90;;;;;;12005622;28;20033;-62
2021/08/02 23:43:34;;;;;;;8.10;4.00;;;21.10;99.90;;;;;;12000145;28;20064;-63
2021/08/02 23:49:23;;;;;;;7.20;4.07;;;21.10;99.90;;;;;;12010683;28;20047;-63
2021/08/02 23:55:10;;;;;;;6.68;3.90;;;21.00;99.90;;;;;;12002280;28;20060;-63
